CCA519 ZSHC-ZSQD
Flight info
| Callsign | CCA519 |
|---|---|
| Flight time | N/A |
| Altitude | 37100 |
| Route | SUPAR9D SUPAR B221 PINOT/K0893S1160 B221 IDVEL IDV81A |
| Aircraft | B77W/H-SDE1E2E3FGHIJ2J3J4J5M1RWXY/LB1D1 |
Departure
| Time | 2026-04-30 14:52 |
|---|---|
| Airport | Hangzhou Xiaoshan International Airport (ZSHC) |
Arrival
| Time | N/A |
|---|---|
| Airport | Qingdao Jiaodong International Airport (ZSQD) |
| Time | Latitude | Longitude | Altitude | Speed | Heading |
|---|---|---|---|---|---|
| 2026-04-30 14:10 | 30.24153 | 120.42695 | 37 ft | 0 kts | 163° |
| 2026-04-30 14:31 | 30.24170 | 120.42689 | 36 ft | 4 kts | 163° |
| 2026-04-30 14:32 | 30.24219 | 120.42672 | 36 ft | 4 kts | 160° |
| 2026-04-30 14:32 | 30.24240 | 120.42658 | 33 ft | 4 kts | 113° |
| 2026-04-30 14:32 | 30.24239 | 120.42633 | 35 ft | 4 kts | 56° |
| 2026-04-30 14:33 | 30.24222 | 120.42608 | 34 ft | 4 kts | 54° |
| 2026-04-30 14:33 | 30.24215 | 120.42597 | 33 ft | 0 kts | 63° |
| 2026-04-30 14:36 | 30.24221 | 120.42609 | 34 ft | 4 kts | 63° |
| 2026-04-30 14:37 | 30.24246 | 120.42666 | 35 ft | 11 kts | 63° |
| 2026-04-30 14:37 | 30.24291 | 120.42768 | 37 ft | 16 kts | 63° |
| 2026-04-30 14:37 | 30.24337 | 120.42858 | 37 ft | 14 kts | 59° |
| 2026-04-30 14:37 | 30.24389 | 120.42976 | 37 ft | 18 kts | 63° |
| 2026-04-30 14:38 | 30.24442 | 120.43096 | 37 ft | 19 kts | 63° |
| 2026-04-30 14:38 | 30.24490 | 120.43206 | 37 ft | 15 kts | 63° |
| 2026-04-30 14:38 | 30.24526 | 120.43288 | 37 ft | 8 kts | 63° |
| 2026-04-30 14:38 | 30.24522 | 120.43348 | 37 ft | 10 kts | 139° |
| 2026-04-30 14:39 | 30.24446 | 120.43395 | 37 ft | 14 kts | 153° |
| 2026-04-30 14:39 | 30.24348 | 120.43452 | 37 ft | 12 kts | 153° |
| 2026-04-30 14:39 | 30.24261 | 120.43504 | 37 ft | 15 kts | 153° |
| 2026-04-30 14:40 | 30.24063 | 120.43621 | 37 ft | 18 kts | 153° |
| 2026-04-30 14:40 | 30.23972 | 120.43674 | 37 ft | 14 kts | 153° |
| 2026-04-30 14:40 | 30.23868 | 120.43735 | 37 ft | 19 kts | 153° |
| 2026-04-30 14:40 | 30.23766 | 120.43794 | 37 ft | 16 kts | 153° |
| 2026-04-30 14:41 | 30.23658 | 120.43857 | 37 ft | 17 kts | 153° |
| 2026-04-30 14:41 | 30.23584 | 120.43901 | 37 ft | 8 kts | 153° |
| 2026-04-30 14:41 | 30.23524 | 120.43935 | 37 ft | 7 kts | 153° |
| 2026-04-30 14:41 | 30.23466 | 120.43952 | 37 ft | 10 kts | 200° |
| 2026-04-30 14:42 | 30.23428 | 120.43878 | 37 ft | 12 kts | 245° |
| 2026-04-30 14:42 | 30.23391 | 120.43794 | 37 ft | 7 kts | 237° |
| 2026-04-30 14:42 | 30.23347 | 120.43786 | 37 ft | 8 kts | 171° |
| 2026-04-30 14:42 | 30.23288 | 120.43753 | 37 ft | 12 kts | 230° |
| 2026-04-30 14:43 | 30.23239 | 120.43654 | 37 ft | 13 kts | 243° |
| 2026-04-30 14:43 | 30.23193 | 120.43550 | 37 ft | 11 kts | 243° |
| 2026-04-30 14:43 | 30.23159 | 120.43471 | 37 ft | 13 kts | 243° |
| 2026-04-30 14:43 | 30.23108 | 120.43356 | 37 ft | 19 kts | 242° |
| 2026-04-30 14:44 | 30.23048 | 120.43221 | 37 ft | 21 kts | 243° |
| 2026-04-30 14:44 | 30.22982 | 120.43074 | 37 ft | 18 kts | 243° |
| 2026-04-30 14:44 | 30.22972 | 120.43050 | 37 ft | 0 kts | 243° |
| 2026-04-30 14:47 | 30.22968 | 120.43042 | 37 ft | 6 kts | 243° |
| 2026-04-30 14:47 | 30.22930 | 120.42956 | 37 ft | 8 kts | 243° |
| 2026-04-30 14:47 | 30.22902 | 120.42893 | 37 ft | 15 kts | 243° |
| 2026-04-30 14:48 | 30.22836 | 120.42746 | 36 ft | 24 kts | 243° |
| 2026-04-30 14:48 | 30.22758 | 120.42570 | 36 ft | 23 kts | 243° |
| 2026-04-30 14:48 | 30.22685 | 120.42406 | 37 ft | 23 kts | 243° |
| 2026-04-30 14:48 | 30.22610 | 120.42236 | 37 ft | 24 kts | 243° |
| 2026-04-30 14:49 | 30.22530 | 120.42055 | 37 ft | 24 kts | 243° |
| 2026-04-30 14:49 | 30.22483 | 120.41950 | 37 ft | 12 kts | 243° |
| 2026-04-30 14:49 | 30.22450 | 120.41876 | 37 ft | 12 kts | 243° |
| 2026-04-30 14:49 | 30.22404 | 120.41772 | 37 ft | 15 kts | 243° |
| 2026-04-30 14:50 | 30.22259 | 120.41773 | 35 ft | 12 kts | 135° |
| 2026-04-30 14:50 | 30.22254 | 120.41862 | 35 ft | 0 kts | 68° |
| 2026-04-30 14:51 | 30.22255 | 120.41864 | 36 ft | 2 kts | 68° |
| 2026-04-30 14:51 | 30.22285 | 120.41934 | 35 ft | 26 kts | 64° |
| 2026-04-30 14:51 | 30.22976 | 120.43491 | 70 ft | 176 kts | 63° |
| 2026-04-30 14:52 | 30.23540 | 120.44755 | 812 ft | 180 kts | 64° |
| 2026-04-30 14:52 | 30.24002 | 120.47690 | 2054 ft | 208 kts | 99° |
| 2026-04-30 14:52 | 30.23723 | 120.49458 | 2348 ft | 239 kts | 100° |
| 2026-04-30 14:53 | 30.23214 | 120.53534 | 3659 ft | 268 kts | 95° |
| 2026-04-30 14:53 | 30.23008 | 120.55711 | 4543 ft | 276 kts | 94° |
| 2026-04-30 14:54 | 30.22232 | 120.60135 | 6333 ft | 288 kts | 105° |
| 2026-04-30 14:54 | 30.20909 | 120.64609 | 8013 ft | 301 kts | 105° |
| 2026-04-30 14:55 | 30.19596 | 120.69316 | 9478 ft | 314 kts | 105° |
| 2026-04-30 14:55 | 30.18887 | 120.71727 | 9861 ft | 321 kts | 111° |
| 2026-04-30 14:55 | 30.16517 | 120.76177 | 9833 ft | 324 kts | 123° |
| 2026-04-30 14:56 | 30.14092 | 120.80498 | 9831 ft | 318 kts | 122° |
| 2026-04-30 14:56 | 30.10600 | 120.83358 | 9836 ft | 313 kts | 168° |
| 2026-04-30 14:57 | 30.08523 | 120.84094 | 9823 ft | 315 kts | 155° |
| 2026-04-30 14:57 | 30.05896 | 120.88009 | 9874 ft | 320 kts | 96° |
| 2026-04-30 14:58 | 30.06823 | 120.92972 | 10555 ft | 335 kts | 50° |
| 2026-04-30 14:58 | 30.08276 | 120.95188 | 10739 ft | 360 kts | 46° |
| 2026-04-30 14:58 | 30.11454 | 120.99972 | 12086 ft | 387 kts | 47° |
| 2026-04-30 14:59 | 30.14733 | 121.05055 | 14064 ft | 402 kts | 47° |
| 2026-04-30 15:00 | 30.19858 | 121.13055 | 16797 ft | 423 kts | 47° |
| 2026-04-30 15:00 | 30.23421 | 121.18623 | 18517 ft | 439 kts | 46° |
| 2026-04-30 15:01 | 30.27031 | 121.24456 | 20065 ft | 454 kts | 49° |
| 2026-04-30 15:01 | 30.28187 | 121.26496 | 20484 ft | 461 kts | 49° |
| 2026-04-30 15:01 | 30.32331 | 121.33932 | 22194 ft | 477 kts | 48° |
| 2026-04-30 15:02 | 30.34149 | 121.37171 | 22937 ft | 483 kts | 48° |
| 2026-04-30 15:02 | 30.35997 | 121.40448 | 23642 ft | 489 kts | 47° |
| 2026-04-30 15:03 | 30.41698 | 121.50436 | 25575 ft | 502 kts | 47° |
| 2026-04-30 15:03 | 30.45604 | 121.57275 | 26524 ft | 518 kts | 47° |
| 2026-04-30 15:04 | 30.49610 | 121.64325 | 27620 ft | 528 kts | 47° |
| 2026-04-30 15:04 | 30.55704 | 121.75103 | 29595 ft | 534 kts | 47° |
| 2026-04-30 15:05 | 30.61899 | 121.86059 | 30542 ft | 553 kts | 47° |
| 2026-04-30 15:06 | 30.66137 | 121.93581 | 31329 ft | 557 kts | 48° |
| 2026-04-30 15:06 | 30.70354 | 122.01102 | 32545 ft | 550 kts | 48° |
| 2026-04-30 15:07 | 30.74454 | 122.08409 | 33860 ft | 545 kts | 48° |
| 2026-04-30 15:07 | 30.79019 | 122.15438 | 34050 ft | 536 kts | 32° |
| 2026-04-30 15:08 | 30.85015 | 122.20005 | 34943 ft | 499 kts | 12° |
| 2026-04-30 15:08 | 30.94721 | 122.23226 | 35906 ft | 485 kts | 4° |
| 2026-04-30 15:09 | 31.01200 | 122.25469 | 36666 ft | 490 kts | 8° |
| 2026-04-30 15:09 | 31.07611 | 122.28299 | 37157 ft | 497 kts | 9° |
| 2026-04-30 15:10 | 31.14089 | 122.31218 | 37215 ft | 497 kts | 10° |
| 2026-04-30 15:11 | 31.32262 | 122.39310 | 37259 ft | 500 kts | 11° |
| 2026-04-30 15:12 | 31.42058 | 122.43423 | 37204 ft | 485 kts | 360° |
| 2026-04-30 15:13 | 31.48500 | 122.43316 | 37217 ft | 451 kts | 338° |
| 2026-04-30 15:14 | 31.68521 | 122.34326 | 37211 ft | 443 kts | 330° |
| 2026-04-30 15:17 | 31.93536 | 122.22510 | 37203 ft | 439 kts | 332° |
| 2026-04-30 15:19 | 32.16267 | 122.12282 | 37197 ft | 437 kts | 332° |